Astrakhan', Russia
Current Conditions -  °F | °C
As of 3:00 PM on Sunday 23 Nov 2014 (Local Time) from URWA Reporting Station
Clear Clear  
Wind Chill: 14°   Ceiling: Unl
Heat Index: 25°   Visibility: 6mi
Dew Point: 16°   Wind: 11mph
Humidity: 69%   Direction: 340°NNW
Pressure: 30.15"   Gusts: NA
Location:  46.35°N, 48.05°E
Report Text: URWA 231200Z 34005MPS CAVOK M04/M09 Q1021 NOSIG RMK QFE768/1024SC040
Loading
Personal Weather Stations






























Interactive Weather Map New forecast layout! Learn more

10-Day Weather Forecast

Advertisements
Track Severe Weather on mobile